Time;durP1;ratioP1;P1;durP2;ratioP2;P2;SDS_P1;SDS_P2;PMS_P1;PMS_P2;Temp;Humidity;BMP_temperature;BMP_pressure;BME280_temperature;BME280_humidity;BME280_pressure;Samples;Min_cycle;Max_cycle;Signal;HPM_P1;HPM_P2
2024/02/27 00:00:28;;;;;;;47.30;25.55;;;7.30;68.20;;;;;;5075852;28;20385;-77
2024/02/27 00:02:53;;;;;;;45.03;25.30;;;7.30;66.70;;;;;;5076024;28;20404;-77
2024/02/27 00:05:19;;;;;;;44.53;25.37;;;7.30;67.90;;;;;;5076165;28;20385;-77
2024/02/27 00:07:44;;;;;;;43.10;25.27;;;7.30;66.40;;;;;;5058736;28;20408;-76
2024/02/27 00:10:16;;;;;;;43.93;26.33;;;7.20;66.20;;;;;;5058553;28;20397;-77
2024/02/27 00:12:42;;;;;;;43.75;25.95;;;7.20;67.50;;;;;;5075722;28;20397;-77
2024/02/27 00:15:08;;;;;;;47.50;26.30;;;7.20;67.80;;;;;;5058747;28;20444;-76
2024/02/27 00:17:34;;;;;;;49.95;28.52;;;7.20;68.00;;;;;;5075867;28;20385;-76
2024/02/27 00:19:59;;;;;;;49.20;25.37;;;7.20;68.60;;;;;;5075839;28;20377;-76
2024/02/27 00:22:25;;;;;;;45.47;26.67;;;7.20;67.60;;;;;;5058406;28;20397;-74
2024/02/27 00:24:50;;;;;;;48.17;27.40;;;7.20;68.00;;;;;;5075758;28;20381;-76
2024/02/27 00:27:16;;;;;;;48.88;25.27;;;7.20;68.40;;;;;;5075596;28;20401;-76
2024/02/27 00:29:41;;;;;;;47.30;27.73;;;7.10;68.70;;;;;;5058166;28;20484;-76
2024/02/27 00:32:07;;;;;;;45.57;25.27;;;7.10;69.70;;;;;;5075710;28;20393;-76
2024/02/27 00:34:33;;;;;;;46.87;26.87;;;7.00;69.80;;;;;;5058527;28;20397;-76
2024/02/27 00:36:59;;;;;;;49.08;28.30;;;7.10;71.00;;;;;;5075559;28;20416;-76
2024/02/27 00:39:24;;;;;;;51.30;28.33;;;7.00;71.10;;;;;;5058199;28;20425;-77
2024/02/27 00:41:50;;;;;;;52.53;28.60;;;7.00;70.80;;;;;;5078884;28;20373;-76
2024/02/27 00:44:16;;;;;;;48.60;27.30;;;7.10;72.20;;;;;;5079569;28;20382;-77
2024/02/27 00:46:42;;;;;;;51.05;27.95;;;7.00;70.80;;;;;;5073090;28;20384;-77
2024/02/27 00:49:08;;;;;;;50.65;27.88;;;7.00;70.90;;;;;;5061316;28;20783;-76
2024/02/27 00:51:34;;;;;;;46.90;26.52;;;7.00;69.90;;;;;;5058904;28;20393;-75
2024/02/27 00:53:59;;;;;;;49.78;28.50;;;7.00;70.60;;;;;;5043526;28;20441;-77
2024/02/27 00:56:25;;;;;;;48.85;26.48;;;7.00;71.60;;;;;;5059711;28;20385;-76
2024/02/27 00:58:51;;;;;;;48.53;27.17;;;7.00;70.20;;;;;;5058307;28;20409;-77
2024/02/27 01:01:17;;;;;;;52.53;30.65;;;7.00;69.60;;;;;;5044163;28;20393;-77
2024/02/27 01:03:43;;;;;;;53.60;30.50;;;7.00;71.70;;;;;;5058571;28;20393;-76
2024/02/27 01:06:08;;;;;;;48.00;27.52;;;7.00;71.10;;;;;;5057885;28;20391;-76
2024/02/27 01:08:34;;;;;;;48.00;28.10;;;7.10;69.80;;;;;;5040563;28;20390;-78
2024/02/27 01:10:59;;;;;;;51.35;26.73;;;7.10;67.10;;;;;;5057463;28;20405;-77
2024/02/27 01:13:25;;;;;;;52.17;26.83;;;7.20;67.40;;;;;;5058312;28;20398;-75
2024/02/27 01:15:51;;;;;;;45.47;27.02;;;7.20;66.50;;;;;;5056414;28;20381;-76
2024/02/27 01:18:16;;;;;;;48.55;26.70;;;7.20;65.80;;;;;;5056682;28;20436;-76
2024/02/27 01:20:42;;;;;;;47.67;27.20;;;7.20;66.00;;;;;;5055619;28;20813;-77
2024/02/27 01:23:07;;;;;;;46.50;26.17;;;7.20;65.50;;;;;;5056523;28;20405;-76
2024/02/27 01:25:33;;;;;;;48.92;28.52;;;7.30;65.40;;;;;;5055893;28;20816;-77
2024/02/27 01:27:59;;;;;;;48.22;27.60;;;7.30;65.40;;;;;;5056549;28;20413;-76
2024/02/27 01:30:24;;;;;;;49.15;27.80;;;7.30;65.70;;;;;;5057900;28;20922;-77
2024/02/27 01:32:50;;;;;;;47.97;27.42;;;7.30;64.50;;;;;;5056593;28;20477;-77
2024/02/27 01:35:18;;;;;;;48.78;27.20;;;7.30;64.90;;;;;;5057001;28;20381;-75
2024/02/27 01:37:44;;;;;;;47.63;27.33;;;7.30;64.20;;;;;;5057149;28;20943;-77
2024/02/27 01:40:10;;;;;;;48.00;26.75;;;7.30;64.40;;;;;;5040792;28;20394;-77
2024/02/27 01:42:36;;;;;;;47.15;26.40;;;7.20;63.40;;;;;;5039264;28;20390;-77
2024/02/27 01:45:03;;;;;;;45.13;26.17;;;7.20;63.20;;;;;;5039862;28;20439;-77
2024/02/27 01:47:30;;;;;;;48.95;26.83;;;7.20;63.70;;;;;;5058714;28;20803;-77
2024/02/27 01:49:57;;;;;;;47.70;25.38;;;7.20;64.60;;;;;;5039426;28;20485;-76
2024/02/27 01:52:22;;;;;;;49.63;27.58;;;7.20;64.20;;;;;;5057342;28;20667;-75
2024/02/27 01:54:50;;;;;;;48.03;26.20;;;7.20;63.90;;;;;;5056093;28;20866;-77
2024/02/27 01:57:19;;;;;;;50.50;27.60;;;7.20;63.40;;;;;;5056201;28;20451;-77
2024/02/27 01:59:45;;;;;;;47.33;27.50;;;7.20;63.60;;;;;;5056353;28;20893;-76
2024/02/27 02:02:11;;;;;;;48.70;27.70;;;7.20;62.90;;;;;;5056971;28;20379;-77
2024/02/27 02:04:37;;;;;;;48.30;26.75;;;7.20;63.10;;;;;;5057288;28;20465;-77
2024/02/27 02:07:03;;;;;;;47.77;26.67;;;7.10;62.10;;;;;;5057816;28;20413;-77
2024/02/27 02:09:29;;;;;;;46.10;27.23;;;7.10;62.80;;;;;;5055363;28;20484;-77
2024/02/27 02:11:55;;;;;;;48.78;26.17;;;7.10;63.70;;;;;;5054742;22;20400;-74
2024/02/27 02:14:20;;;;;;;50.55;26.70;;;7.10;63.30;;;;;;5093778;28;20477;-74
2024/02/27 02:16:46;;;;;;;48.03;26.83;;;7.10;63.50;;;;;;5093492;28;20414;-74
2024/02/27 02:19:12;;;;;;;48.83;26.60;;;7.00;63.60;;;;;;5093479;28;20436;-74
2024/02/27 02:21:38;;;;;;;46.90;26.10;;;7.00;64.40;;;;;;5075223;28;20387;-74
2024/02/27 02:24:04;;;;;;;49.50;25.03;;;7.10;62.80;;;;;;5093767;28;20393;-73
2024/02/27 02:26:31;;;;;;;48.00;27.07;;;7.10;61.70;;;;;;5092850;28;20381;-73
2024/02/27 02:28:57;;;;;;;48.65;25.98;;;7.10;62.60;;;;;;5093658;28;20378;-74
2024/02/27 02:31:23;;;;;;;48.72;26.40;;;7.10;62.70;;;;;;5075439;28;20390;-73
2024/02/27 02:33:48;;;;;;;48.95;26.10;;;7.10;62.50;;;;;;5093378;28;20401;-74
2024/02/27 02:36:14;;;;;;;49.25;26.55;;;7.10;62.80;;;;;;5093683;28;20399;-74
2024/02/27 02:38:39;;;;;;;47.17;27.10;;;7.10;62.70;;;;;;5093740;28;20409;-74
2024/02/27 02:41:06;;;;;;;49.97;27.58;;;7.00;62.80;;;;;;5093690;28;20416;-74
2024/02/27 02:43:31;;;;;;;45.67;24.77;;;7.00;62.90;;;;;;5075075;28;20775;-73
2024/02/27 02:45:57;;;;;;;48.57;27.27;;;7.00;63.50;;;;;;5093396;28;20382;-75
2024/02/27 02:48:22;;;;;;;48.30;26.70;;;7.00;63.90;;;;;;5093590;28;20725;-74
2024/02/27 02:50:48;;;;;;;44.67;26.07;;;7.00;63.60;;;;;;5093921;28;20823;-74
2024/02/27 02:53:13;;;;;;;53.63;26.90;;;7.00;63.00;;;;;;5093484;28;20377;-74
2024/02/27 02:55:42;;;;;;;51.50;26.10;;;7.00;63.70;;;;;;5093130;28;20420;-74
2024/02/27 02:58:08;;;;;;;49.90;26.17;;;6.90;63.50;;;;;;5092671;28;20751;-73
2024/02/27 03:00:33;;;;;;;47.67;25.40;;;6.90;63.70;;;;;;5092938;28;20393;-74
2024/02/27 03:02:59;;;;;;;51.53;27.02;;;6.90;63.80;;;;;;5092840;28;20928;-74
2024/02/27 03:05:24;;;;;;;51.80;27.88;;;6.90;64.00;;;;;;5075515;28;20872;-74
2024/02/27 03:07:50;;;;;;;48.25;25.45;;;6.80;64.90;;;;;;5093289;28;20382;-74
2024/02/27 03:10:16;;;;;;;50.22;27.15;;;6.80;64.10;;;;;;5093833;28;20820;-74
2024/02/27 03:12:43;;;;;;;52.60;27.83;;;6.80;64.50;;;;;;5094274;28;20944;-74
2024/02/27 03:15:09;;;;;;;51.42;28.35;;;6.70;64.50;;;;;;5094213;28;20385;-74
2024/02/27 03:17:35;;;;;;;47.03;26.10;;;6.70;65.10;;;;;;5092300;28;20374;-74
2024/02/27 03:20:01;;;;;;;51.57;28.43;;;6.70;64.80;;;;;;5092535;28;20389;-74
2024/02/27 03:22:26;;;;;;;48.17;27.73;;;6.70;65.70;;;;;;5092482;28;20390;-74
2024/02/27 03:24:52;;;;;;;50.20;28.02;;;6.70;65.50;;;;;;5092176;28;20385;-74
2024/02/27 03:27:18;;;;;;;53.60;27.70;;;6.70;66.20;;;;;;5073811;28;20749;-73
2024/02/27 03:29:43;;;;;;;54.35;28.80;;;6.70;66.00;;;;;;5091696;28;20385;-73
2024/02/27 03:32:09;;;;;;;53.00;29.02;;;6.70;66.30;;;;;;5091904;28;20431;-74
2024/02/27 03:34:35;;;;;;;49.92;27.63;;;6.70;65.90;;;;;;5092648;28;20427;-73
2024/02/27 03:37:01;;;;;;;46.70;25.43;;;6.80;65.20;;;;;;5093023;28;20384;-74
2024/02/27 03:39:28;;;;;;;51.80;27.95;;;6.80;64.60;;;;;;5092849;28;20815;-74
2024/02/27 03:41:53;;;;;;;47.35;26.10;;;6.70;65.00;;;;;;5093181;28;20429;-75
2024/02/27 03:44:19;;;;;;;48.83;26.87;;;6.70;65.00;;;;;;5093473;28;20872;-74
2024/02/27 03:46:44;;;;;;;48.00;25.93;;;6.70;65.20;;;;;;5083756;28;20888;-74
2024/02/27 03:49:10;;;;;;;54.70;28.37;;;6.70;64.80;;;;;;5093386;28;20385;-74
2024/02/27 03:51:35;;;;;;;48.97;26.17;;;6.70;65.10;;;;;;5091758;28;20382;-74
2024/02/27 03:54:01;;;;;;;49.50;26.30;;;6.70;65.80;;;;;;5073659;28;20381;-74
2024/02/27 03:56:27;;;;;;;48.90;26.73;;;6.70;64.90;;;;;;5091724;28;20490;-74
2024/02/27 03:58:52;;;;;;;46.97;26.90;;;6.70;65.40;;;;;;5091547;28;20402;-73
2024/02/27 04:01:18;;;;;;;46.60;26.70;;;6.70;65.70;;;;;;5091799;28;20476;-73
2024/02/27 04:03:44;;;;;;;48.60;26.38;;;6.70;65.30;;;;;;5073745;28;20389;-74
2024/02/27 04:06:11;;;;;;;48.70;26.35;;;6.70;64.80;;;;;;5091559;28;20796;-74
2024/02/27 04:08:37;;;;;;;48.15;26.38;;;6.70;64.80;;;;;;5091828;28;20390;-74
2024/02/27 04:11:04;;;;;;;49.13;27.13;;;6.70;64.50;;;;;;5091454;28;20393;-74
2024/02/27 04:13:29;;;;;;;51.47;28.90;;;6.70;65.30;;;;;;5091855;28;20404;-74
2024/02/27 04:15:55;;;;;;;51.60;27.67;;;6.70;65.40;;;;;;5094893;28;20386;-74
2024/02/27 04:18:24;;;;;;;49.93;28.07;;;6.70;65.60;;;;;;5095917;28;20492;-73
2024/02/27 04:20:49;;;;;;;50.33;29.03;;;6.70;64.80;;;;;;5096162;28;20371;-74
2024/02/27 04:23:15;;;;;;;47.70;27.70;;;6.70;65.40;;;;;;5095904;28;20877;-74
2024/02/27 04:25:40;;;;;;;48.85;28.02;;;6.70;64.80;;;;;;5095553;28;20386;-73
2024/02/27 04:28:06;;;;;;;50.60;28.00;;;6.70;65.30;;;;;;5077752;28;20377;-74
2024/02/27 04:30:32;;;;;;;49.25;26.23;;;6.80;63.90;;;;;;5095798;28;20378;-74
2024/02/27 04:32:58;;;;;;;46.20;27.30;;;6.80;63.10;;;;;;5095781;28;20381;-74
2024/02/27 04:35:23;;;;;;;51.40;27.42;;;6.70;63.40;;;;;;5095704;28;20420;-74
2024/02/27 04:37:49;;;;;;;49.33;28.47;;;6.70;63.50;;;;;;5095919;28;20374;-73
2024/02/27 04:40:15;;;;;;;48.43;27.90;;;6.70;64.50;;;;;;5096362;28;20505;-73
2024/02/27 04:42:41;;;;;;;49.47;28.10;;;6.60;64.70;;;;;;5078783;28;20390;-75
2024/02/27 04:45:06;;;;;;;52.38;27.35;;;6.70;64.70;;;;;;5077756;28;20381;-74
2024/02/27 04:47:32;;;;;;;48.17;26.95;;;6.70;64.50;;;;;;5095517;28;20386;-74
2024/02/27 04:49:58;;;;;;;54.27;29.10;;;6.70;64.30;;;;;;5099010;28;20909;-74
2024/02/27 04:52:24;;;;;;;54.78;28.40;;;6.70;64.60;;;;;;5099932;28;20378;-75
2024/02/27 04:54:49;;;;;;;50.83;28.17;;;6.60;65.10;;;;;;5097856;28;20378;-73
2024/02/27 04:57:15;;;;;;;49.70;27.92;;;6.70;65.50;;;;;;5093797;28;20454;-74
2024/02/27 04:59:40;;;;;;;50.78;28.42;;;6.70;65.40;;;;;;5093733;28;20452;-74
2024/02/27 05:02:06;;;;;;;50.42;28.73;;;6.70;65.00;;;;;;5093665;28;20384;-74
2024/02/27 05:04:31;;;;;;;51.80;29.15;;;6.50;68.90;;;;;;5093969;28;20377;-74
2024/02/27 05:06:57;;;;;;;54.03;29.45;;;6.60;67.20;;;;;;5093943;28;20382;-74
2024/02/27 05:09:24;;;;;;;53.00;29.45;;;6.70;66.90;;;;;;5093749;28;20473;-74
2024/02/27 05:11:49;;;;;;;54.28;29.95;;;6.80;63.30;;;;;;5075106;28;20843;-74
2024/02/27 05:14:16;;;;;;;51.33;30.53;;;6.80;63.10;;;;;;5093929;28;20405;-74
2024/02/27 05:16:41;;;;;;;56.42;31.27;;;6.80;63.20;;;;;;5093088;28;20382;-74
2024/02/27 05:19:09;;;;;;;53.42;29.88;;;6.80;63.20;;;;;;5093603;28;20702;-74
2024/02/27 05:21:34;;;;;;;49.67;29.20;;;6.80;62.80;;;;;;5074679;28;20396;-74
2024/02/27 05:24:00;;;;;;;51.65;29.73;;;6.80;63.00;;;;;;5093129;28;20385;-74
2024/02/27 05:26:26;;;;;;;58.83;30.85;;;6.80;63.50;;;;;;5091917;28;20382;-73
2024/02/27 05:28:51;;;;;;;55.55;31.25;;;6.80;62.50;;;;;;5093320;28;20374;-73
2024/02/27 05:31:26;;;;;;;53.40;30.03;;;6.80;62.30;;;;;;5092993;28;20386;-73
2024/02/27 05:33:56;;;;;;;54.00;30.70;;;6.80;62.60;;;;;;5093156;28;20414;-72
2024/02/27 05:36:23;;;;;;;54.28;31.00;;;6.80;62.80;;;;;;5092849;28;20418;-73
2024/02/27 05:38:50;;;;;;;51.25;28.80;;;6.80;63.20;;;;;;5093176;28;20419;-74
2024/02/27 05:41:17;;;;;;;53.53;29.23;;;6.80;62.40;;;;;;5093505;28;20389;-74
2024/02/27 05:43:43;;;;;;;51.58;29.38;;;6.70;62.30;;;;;;5088152;28;20727;-74
2024/02/27 05:46:09;;;;;;;54.60;30.38;;;6.70;64.50;;;;;;5077442;28;20897;-74
2024/02/27 05:48:39;;;;;;;56.17;30.70;;;6.80;63.60;;;;;;5089113;28;20393;-75
2024/02/27 05:51:05;;;;;;;57.50;30.97;;;6.70;63.40;;;;;;5082141;28;20420;-73
2024/02/27 05:53:32;;;;;;;51.50;28.98;;;6.80;63.70;;;;;;5078943;28;20384;-74
2024/02/27 05:55:58;;;;;;;53.53;30.08;;;6.90;62.10;;;;;;5100096;28;20380;-73
2024/02/27 05:58:24;;;;;;;55.57;31.17;;;6.80;61.80;;;;;;5092359;28;20467;-72
2024/02/27 06:00:51;;;;;;;53.88;30.33;;;6.80;62.70;;;;;;5073376;28;20394;-73
2024/02/27 06:03:17;;;;;;;53.67;30.45;;;6.80;63.20;;;;;;5073361;28;20474;-76
2024/02/27 06:05:43;;;;;;;53.35;30.00;;;6.80;62.60;;;;;;5087008;28;20461;-74
2024/02/27 06:08:08;;;;;;;56.03;31.10;;;6.80;62.00;;;;;;5082015;28;20548;-72
2024/02/27 06:10:34;;;;;;;57.23;30.53;;;6.80;61.40;;;;;;5071856;28;20841;-74
2024/02/27 06:12:59;;;;;;;55.93;31.37;;;6.80;61.20;;;;;;5072888;28;20432;-74
2024/02/27 06:15:25;;;;;;;57.30;30.47;;;6.80;61.90;;;;;;5088192;28;20397;-74
2024/02/27 06:17:50;;;;;;;58.27;32.93;;;6.80;61.50;;;;;;5091935;28;20471;-73
2024/02/27 06:23:01;;;;;;;57.67;31.90;;;6.70;63.90;;;;;;5084781;28;20385;-74
2024/02/27 06:25:27;;;;;;;57.13;32.08;;;6.70;63.30;;;;;;5091641;28;20397;-75
2024/02/27 06:27:53;;;;;;;54.40;30.50;;;6.80;62.20;;;;;;5075191;28;20387;-73
2024/02/27 06:30:19;;;;;;;57.22;32.03;;;6.80;60.20;;;;;;5080029;28;20389;-73
2024/02/27 06:32:44;;;;;;;54.80;31.45;;;6.80;60.90;;;;;;5094137;28;20385;-73
2024/02/27 06:35:10;;;;;;;59.65;32.33;;;6.70;62.50;;;;;;5085228;28;20794;-73
2024/02/27 06:37:36;;;;;;;57.15;31.35;;;6.70;63.10;;;;;;5072152;28;20372;-72
2024/02/27 06:40:04;;;;;;;56.53;30.33;;;6.80;61.80;;;;;;5071565;28;20520;-73
2024/02/27 06:42:36;;;;;;;58.25;31.83;;;6.80;60.50;;;;;;5071600;28;20398;-72
2024/02/27 06:45:02;;;;;;;56.58;31.80;;;6.80;61.60;;;;;;5072128;28;20440;-74
2024/02/27 06:47:28;;;;;;;55.47;31.27;;;6.80;61.60;;;;;;5071118;28;20902;-73
2024/02/27 06:49:56;;;;;;;59.87;33.33;;;6.80;61.50;;;;;;5071334;28;20477;-73
2024/02/27 06:52:22;;;;;;;57.00;30.83;;;6.80;62.00;;;;;;5070873;28;20381;-72
2024/02/27 06:54:48;;;;;;;58.50;32.75;;;6.80;61.60;;;;;;5071023;28;20382;-72
2024/02/27 06:57:14;;;;;;;53.30;30.05;;;6.80;63.20;;;;;;5070924;28;20942;-73
2024/02/27 06:59:40;;;;;;;56.28;31.13;;;6.90;59.90;;;;;;5070955;28;20415;-72
2024/02/27 07:02:06;;;;;;;59.97;32.47;;;6.90;59.10;;;;;;5071372;28;20473;-73
2024/02/27 07:04:32;;;;;;;59.03;34.08;;;6.90;59.60;;;;;;5070708;28;20392;-73
2024/02/27 07:06:58;;;;;;;56.50;29.63;;;6.90;60.20;;;;;;5071236;28;20464;-75
2024/02/27 07:09:24;;;;;;;59.35;33.17;;;6.80;59.50;;;;;;5071458;28;20463;-72
2024/02/27 07:11:49;;;;;;;61.83;32.30;;;6.80;61.30;;;;;;5070763;28;20942;-73
2024/02/27 07:14:15;;;;;;;60.80;32.33;;;6.80;61.70;;;;;;5072735;28;20842;-73
2024/02/27 07:16:41;;;;;;;62.08;32.55;;;6.80;60.20;;;;;;5075542;28;20400;-73
2024/02/27 07:19:07;;;;;;;57.75;31.83;;;6.90;59.80;;;;;;5083452;28;20406;-72
2024/02/27 07:21:32;;;;;;;62.77;32.73;;;6.90;60.20;;;;;;5082169;28;20507;-73
2024/02/27 07:23:58;;;;;;;58.53;31.93;;;6.90;60.40;;;;;;5082815;28;20384;-72
2024/02/27 07:26:24;;;;;;;60.43;32.83;;;6.90;61.10;;;;;;5070828;28;20372;-72
2024/02/27 07:28:49;;;;;;;57.45;31.95;;;7.00;59.20;;;;;;5072338;28;20390;-73
2024/02/27 07:31:18;;;;;;;61.03;31.55;;;7.10;58.20;;;;;;5071879;28;20789;-73
2024/02/27 07:33:44;;;;;;;60.53;31.88;;;7.20;56.90;;;;;;5070882;28;20402;-73
2024/02/27 07:36:10;;;;;;;63.47;31.33;;;7.20;57.70;;;;;;5070450;28;20402;-73
2024/02/27 07:38:36;;;;;;;59.40;32.33;;;7.20;56.30;;;;;;5070545;28;20395;-73
2024/02/27 07:41:02;;;;;;;61.53;31.92;;;7.20;57.40;;;;;;5052426;28;20388;-73
2024/02/27 07:43:27;;;;;;;61.95;33.17;;;7.20;56.60;;;;;;5070842;28;20471;-74
2024/02/27 07:45:53;;;;;;;60.78;31.42;;;7.10;58.10;;;;;;5070595;28;20708;-74
2024/02/27 07:48:20;;;;;;;66.95;33.35;;;7.10;57.90;;;;;;5071285;28;20392;-73
2024/02/27 07:50:46;;;;;;;61.93;33.50;;;7.10;57.60;;;;;;5071506;28;20715;-73
2024/02/27 07:53:12;;;;;;;69.45;34.80;;;7.20;57.60;;;;;;5071220;28;20387;-73
2024/02/27 07:55:39;;;;;;;59.90;32.03;;;7.30;58.40;;;;;;5071257;28;20384;-73
2024/02/27 07:58:04;;;;;;;65.05;35.05;;;7.40;55.60;;;;;;5071933;28;20403;-72
2024/02/27 08:00:32;;;;;;;64.22;33.15;;;7.40;55.60;;;;;;5070739;28;21216;-72
2024/02/27 08:02:58;;;;;;;63.65;32.95;;;7.50;54.20;;;;;;5071000;28;20809;-72
2024/02/27 08:05:25;;;;;;;64.70;34.30;;;7.40;54.60;;;;;;5070026;28;20386;-73
2024/02/27 08:07:51;;;;;;;62.40;32.70;;;7.50;55.80;;;;;;5071355;28;20384;-73
2024/02/27 08:10:17;;;;;;;60.08;32.53;;;7.50;55.00;;;;;;5074990;28;20384;-75
2024/02/27 08:12:43;;;;;;;61.40;33.33;;;7.50;55.00;;;;;;5082680;22;20865;-70
2024/02/27 08:15:09;;;;;;;67.68;33.53;;;7.60;53.50;;;;;;5050454;28;20393;-71
2024/02/27 08:17:34;;;;;;;56.20;30.30;;;7.60;53.80;;;;;;5050159;28;20779;-70
2024/02/27 08:20:00;;;;;;;59.58;32.17;;;7.70;51.80;;;;;;5050585;28;20967;-70
2024/02/27 08:22:26;;;;;;;60.60;33.13;;;7.60;52.70;;;;;;5053683;28;20396;-69
2024/02/27 08:24:51;;;;;;;63.50;30.85;;;7.60;53.60;;;;;;5070501;28;20379;-70
2024/02/27 08:27:17;;;;;;;61.60;32.92;;;7.50;52.90;;;;;;5069137;28;20465;-70
2024/02/27 08:29:42;;;;;;;58.22;30.40;;;7.50;54.20;;;;;;5069585;28;20383;-70
2024/02/27 08:32:08;;;;;;;60.58;32.40;;;7.50;53.00;;;;;;5070192;28;20409;-70
2024/02/27 08:34:33;;;;;;;58.60;30.02;;;7.50;54.20;;;;;;5070013;28;20382;-71
2024/02/27 08:36:59;;;;;;;71.07;35.97;;;7.30;53.10;;;;;;5069883;28;20411;-71
2024/02/27 08:39:24;;;;;;;60.20;31.90;;;7.30;54.30;;;;;;5069969;28;20469;-71
2024/02/27 08:41:50;;;;;;;64.40;32.15;;;7.40;54.30;;;;;;5070251;28;20449;-71
2024/02/27 08:44:16;;;;;;;59.97;31.35;;;7.30;53.50;;;;;;5070344;28;20383;-71
2024/02/27 08:46:42;;;;;;;62.75;32.03;;;7.30;53.90;;;;;;5069794;28;20470;-71
2024/02/27 08:49:08;;;;;;;62.80;32.50;;;7.30;53.70;;;;;;5069893;28;20392;-71
2024/02/27 08:51:34;;;;;;;63.20;32.33;;;7.50;54.00;;;;;;5069791;28;20440;-71
2024/02/27 08:54:03;;;;;;;59.58;31.30;;;7.60;52.50;;;;;;5069976;28;20410;-71
2024/02/27 08:56:28;;;;;;;56.93;29.93;;;7.60;51.30;;;;;;5069319;28;20388;-70
2024/02/27 08:58:54;;;;;;;59.60;33.42;;;7.60;51.50;;;;;;5069860;28;20541;-71
2024/02/27 09:01:19;;;;;;;63.92;32.40;;;7.70;53.40;;;;;;5070412;28;20521;-71
2024/02/27 09:03:46;;;;;;;61.25;31.10;;;8.00;50.90;;;;;;5073691;28;20469;-71
2024/02/27 09:06:11;;;;;;;61.92;33.03;;;8.20;49.10;;;;;;5056055;28;20549;-72
2024/02/27 09:08:37;;;;;;;61.93;32.77;;;8.40;48.60;;;;;;5073516;28;20597;-71
2024/02/27 09:11:03;;;;;;;61.38;32.50;;;8.50;48.60;;;;;;5073368;28;20399;-71
2024/02/27 09:13:29;;;;;;;60.28;32.17;;;8.60;47.00;;;;;;5072939;28;20388;-71
2024/02/27 09:15:55;;;;;;;58.17;31.43;;;8.60;46.30;;;;;;5074097;28;20957;-71
2024/02/27 09:18:20;;;;;;;63.27;32.50;;;8.30;46.00;;;;;;5079781;28;20403;-71
2024/02/27 09:20:46;;;;;;;58.25;31.55;;;8.30;47.30;;;;;;5045685;28;20396;-71
2024/02/27 09:23:12;;;;;;;60.75;32.28;;;8.50;47.40;;;;;;5073261;28;20406;-71
2024/02/27 09:25:38;;;;;;;56.78;31.77;;;8.70;45.40;;;;;;5073190;28;20400;-71
2024/02/27 09:28:05;;;;;;;61.85;33.85;;;8.80;46.60;;;;;;5073210;28;20426;-71
2024/02/27 09:30:30;;;;;;;60.13;33.15;;;9.00;46.50;;;;;;5074634;28;20938;-71
2024/02/27 09:32:56;;;;;;;58.40;32.80;;;9.30;44.40;;;;;;5079791;28;20458;-72
2024/02/27 09:35:21;;;;;;;59.63;32.13;;;9.40;42.70;;;;;;5076767;28;20440;-71
2024/02/27 09:37:47;;;;;;;60.00;32.33;;;9.40;42.50;;;;;;5073421;28;20521;-70
2024/02/27 09:40:13;;;;;;;59.77;32.23;;;9.50;42.10;;;;;;5074364;28;20399;-71
2024/02/27 09:42:42;;;;;;;64.83;35.43;;;9.50;41.10;;;;;;5055255;28;20743;-70
2024/02/27 09:45:09;;;;;;;65.35;33.78;;;9.50;43.00;;;;;;5072107;28;20399;-71
2024/02/27 09:47:45;;;;;;;56.15;32.35;;;9.40;41.20;;;;;;5055449;28;20420;-70
2024/02/27 09:50:15;;;;;;;59.65;31.33;;;9.40;40.80;;;;;;5073224;28;20392;-71
2024/02/27 09:52:42;;;;;;;61.08;33.38;;;9.10;41.80;;;;;;5073873;28;20793;-71
2024/02/27 09:55:08;;;;;;;55.10;31.00;;;9.20;42.30;;;;;;5073797;28;20414;-70
2024/02/27 09:57:34;;;;;;;58.67;32.50;;;9.30;41.60;;;;;;5071584;28;20889;-70
2024/02/27 10:00:00;;;;;;;53.72;30.60;;;9.40;41.90;;;;;;5072266;28;20486;-70
2024/02/27 10:02:25;;;;;;;56.63;31.40;;;9.50;41.40;;;;;;5074412;28;20394;-71
2024/02/27 10:04:53;;;;;;;56.23;30.30;;;9.50;40.20;;;;;;5074451;28;20384;-70
2024/02/27 10:07:19;;;;;;;60.90;32.20;;;9.00;40.90;;;;;;5072922;28;20470;-71
2024/02/27 10:09:46;;;;;;;54.42;29.80;;;8.70;43.50;;;;;;5072904;28;20385;-69
2024/02/27 10:12:13;;;;;;;56.38;30.88;;;8.60;43.30;;;;;;5072911;28;20452;-71
2024/02/27 10:14:40;;;;;;;57.53;31.13;;;8.50;43.70;;;;;;5073770;28;20430;-71
2024/02/27 10:17:06;;;;;;;54.03;29.75;;;8.80;44.00;;;;;;5074479;28;20392;-71
2024/02/27 10:19:34;;;;;;;50.83;27.90;;;8.90;41.90;;;;;;5075711;28;20415;-71
2024/02/27 10:22:01;;;;;;;56.92;29.35;;;8.60;42.00;;;;;;5074144;28;20384;-70
2024/02/27 10:24:29;;;;;;;58.95;31.30;;;8.40;42.70;;;;;;5076467;28;20433;-71
2024/02/27 10:26:56;;;;;;;94.20;43.30;;;8.40;43.30;;;;;;5076599;28;20380;-71
2024/02/27 10:29:31;;;;;;;52.30;28.52;;;8.70;44.00;;;;;;5073088;28;20775;-70
2024/02/27 10:31:57;;;;;;;57.10;31.40;;;8.80;41.80;;;;;;5071431;28;20889;-70
2024/02/27 10:34:25;;;;;;;55.30;31.65;;;8.90;42.30;;;;;;5072019;28;20391;-71
2024/02/27 10:37:02;;;;;;;53.50;29.40;;;9.00;41.60;;;;;;5072400;28;20380;-71
2024/02/27 10:39:28;;;;;;;58.72;32.33;;;8.90;40.60;;;;;;5073100;28;20954;-71
2024/02/27 10:41:54;;;;;;;57.70;31.70;;;8.60;42.10;;;;;;5072114;28;20384;-71
2024/02/27 10:44:20;;;;;;;58.70;32.53;;;8.60;42.30;;;;;;5075482;28;20375;-69
2024/02/27 10:46:47;;;;;;;56.15;30.58;;;8.50;43.20;;;;;;5073399;28;20391;-71
2024/02/27 10:49:13;;;;;;;59.08;32.15;;;8.50;43.00;;;;;;5072565;28;20442;-70
2024/02/27 10:51:41;;;;;;;56.17;30.13;;;8.70;43.70;;;;;;5072504;28;20383;-71
2024/02/27 10:54:07;;;;;;;53.03;30.63;;;9.00;43.50;;;;;;5072896;28;20384;-71
2024/02/27 10:56:33;;;;;;;52.72;30.10;;;9.10;41.60;;;;;;5073473;28;20409;-71
2024/02/27 10:59:03;;;;;;;53.70;30.20;;;9.20;40.70;;;;;;5072552;28;20506;-71
2024/02/27 11:01:29;;;;;;;57.08;32.45;;;9.10;40.10;;;;;;5072400;28;20392;-71
2024/02/27 11:03:56;;;;;;;60.28;33.50;;;9.00;41.60;;;;;;5056490;28;20388;-71
2024/02/27 11:06:28;;;;;;;60.78;34.22;;;9.00;42.10;;;;;;5075587;28;20379;-71
2024/02/27 11:09:03;;;;;;;60.08;32.65;;;9.10;41.30;;;;;;5076004;28;20423;-71
2024/02/27 11:11:29;;;;;;;58.65;31.48;;;9.20;41.90;;;;;;5078957;28;20415;-72
2024/02/27 11:14:00;;;;;;;57.17;31.13;;;9.40;39.30;;;;;;5077817;28;20747;-71
2024/02/27 11:16:27;;;;;;;57.70;31.30;;;9.20;39.60;;;;;;5077504;28;20394;-72
2024/02/27 11:18:57;;;;;;;54.55;29.73;;;9.40;41.70;;;;;;5078440;28;20439;-71
2024/02/27 11:21:24;;;;;;;48.95;28.77;;;9.50;39.90;;;;;;5074573;28;20426;-71
2024/02/27 11:23:51;;;;;;;45.23;24.57;;;9.60;39.10;;;;;;5071132;28;20889;-71
2024/02/27 11:26:18;;;;;;;48.30;27.25;;;9.50;38.20;;;;;;5070973;28;20376;-71
2024/02/27 11:28:44;;;;;;;50.35;27.48;;;9.40;38.40;;;;;;5070628;28;20388;-70
2024/02/27 11:31:10;;;;;;;49.50;28.95;;;9.30;39.40;;;;;;5071087;28;20857;-70
2024/02/27 11:33:52;;;;;;;50.60;28.93;;;9.20;39.90;;;;;;5073668;28;20388;-71
2024/02/27 11:36:18;;;;;;;53.90;30.02;;;9.10;40.60;;;;;;5079699;28;20383;-71
2024/02/27 11:38:44;;;;;;;50.53;28.73;;;9.30;40.20;;;;;;5075886;28;20862;-71
2024/02/27 11:41:23;;;;;;;51.95;28.40;;;9.30;39.40;;;;;;5074670;28;20380;-70
2024/02/27 11:43:55;;;;;;;50.53;27.00;;;9.40;39.70;;;;;;5074719;28;20512;-71
2024/02/27 11:46:27;;;;;;;48.60;26.50;;;9.40;39.10;;;;;;5074786;28;20764;-71
2024/02/27 11:48:53;;;;;;;44.53;24.77;;;9.30;39.40;;;;;;5072533;28;20403;-71
2024/02/27 11:51:29;;;;;;;44.92;24.85;;;9.00;39.10;;;;;;5071808;28;20486;-71
2024/02/27 11:53:55;;;;;;;42.30;24.88;;;8.90;40.20;;;;;;5070885;28;20411;-70
2024/02/27 11:56:22;;;;;;;43.22;24.85;;;8.70;40.70;;;;;;5070483;28;20387;-70
2024/02/27 11:58:49;;;;;;;44.63;24.73;;;8.60;40.10;;;;;;5070843;28;20476;-71
2024/02/27 12:01:16;;;;;;;43.95;24.58;;;8.70;40.80;;;;;;5070950;28;20451;-70
2024/02/27 12:03:46;;;;;;;43.85;23.70;;;8.60;40.50;;;;;;5070486;28;20387;-70
2024/02/27 12:06:12;;;;;;;39.22;21.25;;;8.60;40.90;;;;;;5070495;28;20973;-71
2024/02/27 12:09:04;;;;;;;39.80;21.23;;;8.70;40.00;;;;;;5071133;28;20423;-71
2024/02/27 12:11:30;;;;;;;45.78;22.00;;;8.50;40.70;;;;;;5067508;28;20384;-71
2024/02/27 12:13:56;;;;;;;42.53;23.42;;;8.50;40.80;;;;;;5071342;28;20487;-70
2024/02/27 12:16:25;;;;;;;42.70;23.60;;;8.60;41.60;;;;;;5071802;28;20419;-72
2024/02/27 12:18:56;;;;;;;38.13;22.65;;;8.80;42.80;;;;;;5071024;28;20854;-71
2024/02/27 12:21:33;;;;;;;41.38;23.48;;;9.00;40.50;;;;;;5070571;28;20448;-70
2024/02/27 12:24:12;;;;;;;41.40;23.17;;;8.90;40.60;;;;;;5071095;28;20415;-70
2024/02/27 12:26:39;;;;;;;42.17;22.95;;;8.90;40.70;;;;;;5070352;28;20384;-70
2024/02/27 12:29:05;;;;;;;36.72;20.75;;;9.00;41.10;;;;;;5070744;28;20384;-70
2024/02/27 12:31:31;;;;;;;37.50;22.70;;;9.10;38.80;;;;;;5070670;28;20387;-71
2024/02/27 12:34:01;;;;;;;41.42;22.40;;;9.00;40.00;;;;;;5071881;28;20424;-70